sensor_id;sensor_type;location;lat;lon;timestamp;temperature;humidity
20102;DHT22;10210;52.284;9.892;2023-06-14T00:02:09;22.20;83.40
20102;DHT22;10210;52.284;9.892;2023-06-14T00:04:35;22.10;83.50
20102;DHT22;10210;52.284;9.892;2023-06-14T00:07:02;22.10;83.90
20102;DHT22;10210;52.284;9.892;2023-06-14T00:09:27;22.00;83.70
20102;DHT22;10210;52.284;9.892;2023-06-14T00:11:53;22.00;84.10
20102;DHT22;10210;52.284;9.892;2023-06-14T00:14:19;22.00;84.30
20102;DHT22;10210;52.284;9.892;2023-06-14T00:16:45;21.90;84.40
20102;DHT22;10210;52.284;9.892;2023-06-14T00:19:11;22.00;84.60
20102;DHT22;10210;52.284;9.892;2023-06-14T00:21:37;21.90;84.40
20102;DHT22;10210;52.284;9.892;2023-06-14T00:24:03;21.90;84.60
20102;DHT22;10210;52.284;9.892;2023-06-14T00:26:30;21.90;84.50
20102;DHT22;10210;52.284;9.892;2023-06-14T00:28:56;21.80;84.80
20102;DHT22;10210;52.284;9.892;2023-06-14T00:31:23;21.80;84.80
20102;DHT22;10210;52.284;9.892;2023-06-14T00:33:48;21.70;85.00
20102;DHT22;10210;52.284;9.892;2023-06-14T00:36:14;21.70;85.00
20102;DHT22;10210;52.284;9.892;2023-06-14T00:38:41;21.60;85.10
20102;DHT22;10210;52.284;9.892;2023-06-14T00:41:06;21.60;85.40
20102;DHT22;10210;52.284;9.892;2023-06-14T00:43:32;21.60;85.30
20102;DHT22;10210;52.284;9.892;2023-06-14T00:46:00;21.60;85.40
20102;DHT22;10210;52.284;9.892;2023-06-14T00:48:27;21.60;85.70
20102;DHT22;10210;52.284;9.892;2023-06-14T00:50:54;21.60;85.70
20102;DHT22;10210;52.284;9.892;2023-06-14T00:53:20;21.60;85.90
20102;DHT22;10210;52.284;9.892;2023-06-14T00:55:48;21.50;85.80
20102;DHT22;10210;52.284;9.892;2023-06-14T00:58:14;21.50;85.70
20102;DHT22;10210;52.284;9.892;2023-06-14T01:00:42;21.50;85.90
20102;DHT22;10210;52.284;9.892;2023-06-14T01:03:08;21.50;86.20
20102;DHT22;10210;52.284;9.892;2023-06-14T01:05:37;21.40;86.00
20102;DHT22;10210;52.284;9.892;2023-06-14T01:11:18;21.40;86.20
20102;DHT22;10210;52.284;9.892;2023-06-14T01:13:47;21.40;86.60
20102;DHT22;10210;52.284;9.892;2023-06-14T01:16:15;21.40;86.20
20102;DHT22;10210;52.284;9.892;2023-06-14T01:18:44;21.30;86.40
20102;DHT22;10210;52.284;9.892;2023-06-14T01:21:21;21.30;87.00
20102;DHT22;10210;52.284;9.892;2023-06-14T01:23:49;21.20;87.70
20102;DHT22;10210;52.284;9.892;2023-06-14T01:26:19;21.20;87.00
20102;DHT22;10210;52.284;9.892;2023-06-14T01:28:49;21.20;87.20
20102;DHT22;10210;52.284;9.892;2023-06-14T01:31:20;21.10;87.50
20102;DHT22;10210;52.284;9.892;2023-06-14T01:33:50;21.10;87.70
20102;DHT22;10210;52.284;9.892;2023-06-14T01:36:21;21.10;87.60
20102;DHT22;10210;52.284;9.892;2023-06-14T01:38:48;21.00;88.30
20102;DHT22;10210;52.284;9.892;2023-06-14T01:41:17;21.00;88.10
20102;DHT22;10210;52.284;9.892;2023-06-14T01:43:45;21.00;88.00
20102;DHT22;10210;52.284;9.892;2023-06-14T01:46:13;20.90;88.10
20102;DHT22;10210;52.284;9.892;2023-06-14T01:48:40;20.90;88.50
20102;DHT22;10210;52.284;9.892;2023-06-14T01:51:06;20.80;88.40
20102;DHT22;10210;52.284;9.892;2023-06-14T01:53:32;20.80;88.30
20102;DHT22;10210;52.284;9.892;2023-06-14T01:55:57;20.70;88.40
20102;DHT22;10210;52.284;9.892;2023-06-14T01:58:24;20.70;88.60
20102;DHT22;10210;52.284;9.892;2023-06-14T02:00:50;20.60;88.80
20102;DHT22;10210;52.284;9.892;2023-06-14T02:03:16;20.60;89.20
20102;DHT22;10210;52.284;9.892;2023-06-14T02:05:42;20.50;89.10
20102;DHT22;10210;52.284;9.892;2023-06-14T02:08:08;20.40;89.30
20102;DHT22;10210;52.284;9.892;2023-06-14T02:10:34;20.40;89.30
20102;DHT22;10210;52.284;9.892;2023-06-14T02:13:00;20.30;89.50
20102;DHT22;10210;52.284;9.892;2023-06-14T02:15:25;20.30;90.00
20102;DHT22;10210;52.284;9.892;2023-06-14T02:17:52;20.20;89.90
20102;DHT22;10210;52.284;9.892;2023-06-14T02:20:19;20.20;90.00
20102;DHT22;10210;52.284;9.892;2023-06-14T02:22:45;20.10;90.00
20102;DHT22;10210;52.284;9.892;2023-06-14T02:25:11;20.10;90.20
20102;DHT22;10210;52.284;9.892;2023-06-14T02:27:36;20.00;90.30
20102;DHT22;10210;52.284;9.892;2023-06-14T02:30:02;20.00;90.40
20102;DHT22;10210;52.284;9.892;2023-06-14T02:32:28;20.00;90.40
20102;DHT22;10210;52.284;9.892;2023-06-14T02:34:54;20.00;90.50
20102;DHT22;10210;52.284;9.892;2023-06-14T02:37:20;20.00;90.60
20102;DHT22;10210;52.284;9.892;2023-06-14T02:39:46;20.00;90.60
20102;DHT22;10210;52.284;9.892;2023-06-14T02:42:11;19.90;90.70
20102;DHT22;10210;52.284;9.892;2023-06-14T02:44:37;20.00;90.90
20102;DHT22;10210;52.284;9.892;2023-06-14T02:47:04;19.90;90.50
20102;DHT22;10210;52.284;9.892;2023-06-14T02:49:30;19.90;90.60
20102;DHT22;10210;52.284;9.892;2023-06-14T02:51:57;19.90;90.80
20102;DHT22;10210;52.284;9.892;2023-06-14T02:54:22;19.80;90.50
20102;DHT22;10210;52.284;9.892;2023-06-14T02:56:48;19.80;90.60
20102;DHT22;10210;52.284;9.892;2023-06-14T02:59:13;19.80;90.70
20102;DHT22;10210;52.284;9.892;2023-06-14T03:01:40;19.80;90.70
20102;DHT22;10210;52.284;9.892;2023-06-14T03:04:07;19.70;90.80
20102;DHT22;10210;52.284;9.892;2023-06-14T03:06:33;19.70;90.80
20102;DHT22;10210;52.284;9.892;2023-06-14T03:09:00;19.70;90.70
20102;DHT22;10210;52.284;9.892;2023-06-14T03:11:27;19.60;90.70
20102;DHT22;10210;52.284;9.892;2023-06-14T03:13:55;19.60;90.70
20102;DHT22;10210;52.284;9.892;2023-06-14T03:16:22;19.60;90.80
20102;DHT22;10210;52.284;9.892;2023-06-14T03:18:50;19.60;90.80
20102;DHT22;10210;52.284;9.892;2023-06-14T03:21:17;19.50;90.80
20102;DHT22;10210;52.284;9.892;2023-06-14T03:23:47;19.50;90.80
20102;DHT22;10210;52.284;9.892;2023-06-14T03:26:14;19.50;90.90
20102;DHT22;10210;52.284;9.892;2023-06-14T03:28:46;19.40;90.90
20102;DHT22;10210;52.284;9.892;2023-06-14T03:31:13;19.40;90.90
20102;DHT22;10210;52.284;9.892;2023-06-14T03:33:39;19.40;91.40
20102;DHT22;10210;52.284;9.892;2023-06-14T03:36:06;19.40;91.30
20102;DHT22;10210;52.284;9.892;2023-06-14T03:38:34;19.40;91.50
20102;DHT22;10210;52.284;9.892;2023-06-14T03:41:00;19.40;91.70
20102;DHT22;10210;52.284;9.892;2023-06-14T03:43:26;19.30;91.60
20102;DHT22;10210;52.284;9.892;2023-06-14T03:45:52;19.30;91.70
20102;DHT22;10210;52.284;9.892;2023-06-14T03:48:18;19.30;91.80
20102;DHT22;10210;52.284;9.892;2023-06-14T03:50:44;19.30;91.90
20102;DHT22;10210;52.284;9.892;2023-06-14T03:53:10;19.30;92.00
20102;DHT22;10210;52.284;9.892;2023-06-14T03:55:36;19.30;92.10
20102;DHT22;10210;52.284;9.892;2023-06-14T03:58:03;19.30;92.20
20102;DHT22;10210;52.284;9.892;2023-06-14T04:00:29;19.30;92.40
20102;DHT22;10210;52.284;9.892;2023-06-14T04:02:55;19.30;92.40
20102;DHT22;10210;52.284;9.892;2023-06-14T04:05:21;19.30;92.40
20102;DHT22;10210;52.284;9.892;2023-06-14T04:07:46;19.30;92.40
20102;DHT22;10210;52.284;9.892;2023-06-14T04:10:15;19.20;92.40
20102;DHT22;10210;52.284;9.892;2023-06-14T04:12:42;19.20;92.60
20102;DHT22;10210;52.284;9.892;2023-06-14T04:15:08;19.20;92.80
20102;DHT22;10210;52.284;9.892;2023-06-14T04:17:35;19.20;92.80
20102;DHT22;10210;52.284;9.892;2023-06-14T04:20:02;19.20;92.80
20102;DHT22;10210;52.284;9.892;2023-06-14T04:22:32;19.10;93.10
20102;DHT22;10210;52.284;9.892;2023-06-14T04:24:58;19.10;93.10
20102;DHT22;10210;52.284;9.892;2023-06-14T04:27:25;19.20;93.20
20102;DHT22;10210;52.284;9.892;2023-06-14T04:29:52;19.10;93.20
20102;DHT22;10210;52.284;9.892;2023-06-14T04:32:29;19.10;93.40
20102;DHT22;10210;52.284;9.892;2023-06-14T04:34:57;19.10;93.70
20102;DHT22;10210;52.284;9.892;2023-06-14T04:37:24;19.10;93.60
20102;DHT22;10210;52.284;9.892;2023-06-14T04:39:54;19.10;93.50
20102;DHT22;10210;52.284;9.892;2023-06-14T04:42:24;19.10;93.70
20102;DHT22;10210;52.284;9.892;2023-06-14T04:44:51;19.10;93.60
20102;DHT22;10210;52.284;9.892;2023-06-14T04:47:22;19.10;93.70
20102;DHT22;10210;52.284;9.892;2023-06-14T04:49:50;19.10;93.80
20102;DHT22;10210;52.284;9.892;2023-06-14T04:52:17;19.10;93.80
20102;DHT22;10210;52.284;9.892;2023-06-14T04:54:46;19.20;93.90
20102;DHT22;10210;52.284;9.892;2023-06-14T04:57:12;19.20;93.90
20102;DHT22;10210;52.284;9.892;2023-06-14T04:59:43;19.20;94.10
20102;DHT22;10210;52.284;9.892;2023-06-14T05:02:13;19.20;94.10
20102;DHT22;10210;52.284;9.892;2023-06-14T05:04:39;19.20;94.10
20102;DHT22;10210;52.284;9.892;2023-06-14T05:07:07;19.30;94.00
20102;DHT22;10210;52.284;9.892;2023-06-14T05:09:33;19.30;94.40
20102;DHT22;10210;52.284;9.892;2023-06-14T05:11:59;19.30;94.30
20102;DHT22;10210;52.284;9.892;2023-06-14T05:14:27;19.40;94.40
20102;DHT22;10210;52.284;9.892;2023-06-14T05:16:53;19.40;94.70
20102;DHT22;10210;52.284;9.892;2023-06-14T05:19:19;19.40;94.50
20102;DHT22;10210;52.284;9.892;2023-06-14T05:21:46;19.40;94.70
20102;DHT22;10210;52.284;9.892;2023-06-14T05:24:14;19.50;94.70
20102;DHT22;10210;52.284;9.892;2023-06-14T05:26:44;19.50;94.60
20102;DHT22;10210;52.284;9.892;2023-06-14T05:29:09;19.50;95.00
20102;DHT22;10210;52.284;9.892;2023-06-14T05:31:35;19.50;94.70
20102;DHT22;10210;52.284;9.892;2023-06-14T05:34:01;19.60;94.80
20102;DHT22;10210;52.284;9.892;2023-06-14T05:36:26;19.60;94.70
20102;DHT22;10210;52.284;9.892;2023-06-14T05:38:54;19.60;94.90
20102;DHT22;10210;52.284;9.892;2023-06-14T05:41:28;19.70;94.90
20102;DHT22;10210;52.284;9.892;2023-06-14T05:43:55;19.70;94.90
20102;DHT22;10210;52.284;9.892;2023-06-14T05:46:23;19.70;95.00
20102;DHT22;10210;52.284;9.892;2023-06-14T05:48:54;19.80;95.30
20102;DHT22;10210;52.284;9.892;2023-06-14T05:51:20;19.80;95.20
20102;DHT22;10210;52.284;9.892;2023-06-14T05:53:48;19.90;95.20
20102;DHT22;10210;52.284;9.892;2023-06-14T05:56:15;19.90;95.10
20102;DHT22;10210;52.284;9.892;2023-06-14T05:58:44;19.90;95.20
20102;DHT22;10210;52.284;9.892;2023-06-14T06:01:10;20.00;95.10
20102;DHT22;10210;52.284;9.892;2023-06-14T06:03:36;20.00;95.10
20102;DHT22;10210;52.284;9.892;2023-06-14T06:06:02;20.00;95.20
20102;DHT22;10210;52.284;9.892;2023-06-14T06:08:28;20.10;95.10
20102;DHT22;10210;52.284;9.892;2023-06-14T06:10:55;20.10;95.20
20102;DHT22;10210;52.284;9.892;2023-06-14T06:13:21;20.10;95.10
20102;DHT22;10210;52.284;9.892;2023-06-14T06:15:47;20.10;95.20
20102;DHT22;10210;52.284;9.892;2023-06-14T06:18:12;20.20;95.30
20102;DHT22;10210;52.284;9.892;2023-06-14T06:20:38;20.20;95.20
20102;DHT22;10210;52.284;9.892;2023-06-14T06:23:04;20.20;95.40
20102;DHT22;10210;52.284;9.892;2023-06-14T06:25:29;20.30;95.40
20102;DHT22;10210;52.284;9.892;2023-06-14T06:27:57;20.30;95.30
20102;DHT22;10210;52.284;9.892;2023-06-14T06:30:24;20.40;95.40
20102;DHT22;10210;52.284;9.892;2023-06-14T06:32:50;20.40;95.20
20102;DHT22;10210;52.284;9.892;2023-06-14T06:35:16;20.40;95.20
20102;DHT22;10210;52.284;9.892;2023-06-14T06:37:42;20.50;95.30
20102;DHT22;10210;52.284;9.892;2023-06-14T06:40:08;20.50;95.40
20102;DHT22;10210;52.284;9.892;2023-06-14T06:42:36;20.60;95.40
20102;DHT22;10210;52.284;9.892;2023-06-14T06:45:03;20.60;95.50
20102;DHT22;10210;52.284;9.892;2023-06-14T06:47:29;20.60;95.30
20102;DHT22;10210;52.284;9.892;2023-06-14T06:49:56;20.70;95.30
20102;DHT22;10210;52.284;9.892;2023-06-14T06:52:23;20.70;95.40
20102;DHT22;10210;52.284;9.892;2023-06-14T06:54:49;20.70;95.50
20102;DHT22;10210;52.284;9.892;2023-06-14T06:57:20;20.80;95.60
20102;DHT22;10210;52.284;9.892;2023-06-14T06:59:48;20.90;95.90
20102;DHT22;10210;52.284;9.892;2023-06-14T07:02:14;21.10;96.30
20102;DHT22;10210;52.284;9.892;2023-06-14T07:04:40;21.30;96.40
20102;DHT22;10210;52.284;9.892;2023-06-14T07:07:07;21.60;96.80
20102;DHT22;10210;52.284;9.892;2023-06-14T07:09:35;22.00;96.80
20102;DHT22;10210;52.284;9.892;2023-06-14T07:12:01;22.50;96.80
20102;DHT22;10210;52.284;9.892;2023-06-14T07:14:26;22.90;96.30
20102;DHT22;10210;52.284;9.892;2023-06-14T07:16:52;23.40;95.90
20102;DHT22;10210;52.284;9.892;2023-06-14T07:19:18;23.80;95.60
20102;DHT22;10210;52.284;9.892;2023-06-14T07:21:44;24.20;94.80
20102;DHT22;10210;52.284;9.892;2023-06-14T07:24:10;24.60;94.40
20102;DHT22;10210;52.284;9.892;2023-06-14T07:26:36;24.90;93.80
20102;DHT22;10210;52.284;9.892;2023-06-14T07:29:02;25.20;93.00
20102;DHT22;10210;52.284;9.892;2023-06-14T07:31:28;25.60;93.10
20102;DHT22;10210;52.284;9.892;2023-06-14T07:33:55;25.80;92.60
20102;DHT22;10210;52.284;9.892;2023-06-14T07:36:22;26.10;92.50
20102;DHT22;10210;52.284;9.892;2023-06-14T07:38:47;26.30;92.40
20102;DHT22;10210;52.284;9.892;2023-06-14T07:41:13;26.60;92.80
20102;DHT22;10210;52.284;9.892;2023-06-14T07:43:39;26.80;92.30
20102;DHT22;10210;52.284;9.892;2023-06-14T07:46:05;27.00;92.10
20102;DHT22;10210;52.284;9.892;2023-06-14T07:48:31;27.20;91.60
20102;DHT22;10210;52.284;9.892;2023-06-14T07:50:57;27.40;90.50
20102;DHT22;10210;52.284;9.892;2023-06-14T07:53:22;27.50;90.00
20102;DHT22;10210;52.284;9.892;2023-06-14T07:55:50;27.60;90.10
20102;DHT22;10210;52.284;9.892;2023-06-14T07:58:16;27.70;90.00
20102;DHT22;10210;52.284;9.892;2023-06-14T08:00:41;27.80;89.60
20102;DHT22;10210;52.284;9.892;2023-06-14T08:03:08;27.90;89.10
20102;DHT22;10210;52.284;9.892;2023-06-14T08:05:36;28.00;88.50
20102;DHT22;10210;52.284;9.892;2023-06-14T08:08:02;28.00;87.50
20102;DHT22;10210;52.284;9.892;2023-06-14T08:10:27;28.10;85.70
20102;DHT22;10210;52.284;9.892;2023-06-14T08:12:54;28.10;86.70
20102;DHT22;10210;52.284;9.892;2023-06-14T08:15:20;28.10;86.80
20102;DHT22;10210;52.284;9.892;2023-06-14T08:17:46;28.10;86.50
20102;DHT22;10210;52.284;9.892;2023-06-14T08:20:12;28.20;87.60
20102;DHT22;10210;52.284;9.892;2023-06-14T08:22:39;28.30;87.10
20102;DHT22;10210;52.284;9.892;2023-06-14T08:25:08;28.40;86.60
20102;DHT22;10210;52.284;9.892;2023-06-14T08:27:34;28.50;86.30
20102;DHT22;10210;52.284;9.892;2023-06-14T08:30:01;28.50;86.30
20102;DHT22;10210;52.284;9.892;2023-06-14T08:32:27;28.60;86.00
20102;DHT22;10210;52.284;9.892;2023-06-14T08:34:53;28.70;86.70
20102;DHT22;10210;52.284;9.892;2023-06-14T08:37:19;28.80;85.50
20102;DHT22;10210;52.284;9.892;2023-06-14T08:39:45;28.80;85.40
20102;DHT22;10210;52.284;9.892;2023-06-14T08:42:12;28.80;85.10
20102;DHT22;10210;52.284;9.892;2023-06-14T08:44:39;28.90;85.00
20102;DHT22;10210;52.284;9.892;2023-06-14T08:47:07;28.90;84.40
20102;DHT22;10210;52.284;9.892;2023-06-14T08:49:36;29.00;83.10
20102;DHT22;10210;52.284;9.892;2023-06-14T08:52:05;28.90;83.20
20102;DHT22;10210;52.284;9.892;2023-06-14T08:54:34;28.90;82.50
20102;DHT22;10210;52.284;9.892;2023-06-14T08:57:12;28.90;83.60
20102;DHT22;10210;52.284;9.892;2023-06-14T08:59:46;29.00;83.90
20102;DHT22;10210;52.284;9.892;2023-06-14T09:02:15;29.10;82.90
20102;DHT22;10210;52.284;9.892;2023-06-14T09:04:43;29.10;82.60
20102;DHT22;10210;52.284;9.892;2023-06-14T09:07:10;29.10;82.90
20102;DHT22;10210;52.284;9.892;2023-06-14T09:09:40;29.10;82.30
20102;DHT22;10210;52.284;9.892;2023-06-14T09:12:09;29.10;82.10
20102;DHT22;10210;52.284;9.892;2023-06-14T09:14:37;29.10;81.00
20102;DHT22;10210;52.284;9.892;2023-06-14T09:17:05;29.10;81.70
20102;DHT22;10210;52.284;9.892;2023-06-14T09:19:31;29.00;81.50
20102;DHT22;10210;52.284;9.892;2023-06-14T09:21:58;29.00;82.10
20102;DHT22;10210;52.284;9.892;2023-06-14T09:24:25;28.90;80.80
20102;DHT22;10210;52.284;9.892;2023-06-14T09:26:51;28.90;81.30
20102;DHT22;10210;52.284;9.892;2023-06-14T09:29:17;28.90;81.80
20102;DHT22;10210;52.284;9.892;2023-06-14T09:31:47;29.00;81.80
20102;DHT22;10210;52.284;9.892;2023-06-14T09:34:13;29.00;81.80
20102;DHT22;10210;52.284;9.892;2023-06-14T09:36:41;29.10;81.40
20102;DHT22;10210;52.284;9.892;2023-06-14T09:39:08;29.10;81.50
20102;DHT22;10210;52.284;9.892;2023-06-14T09:41:38;29.10;80.90
20102;DHT22;10210;52.284;9.892;2023-06-14T09:44:09;29.10;80.70
20102;DHT22;10210;52.284;9.892;2023-06-14T09:46:36;29.00;80.00
20102;DHT22;10210;52.284;9.892;2023-06-14T09:49:03;29.10;81.10
20102;DHT22;10210;52.284;9.892;2023-06-14T09:51:30;29.10;80.60
20102;DHT22;10210;52.284;9.892;2023-06-14T09:54:01;29.10;80.30
20102;DHT22;10210;52.284;9.892;2023-06-14T09:56:37;29.10;80.00
20102;DHT22;10210;52.284;9.892;2023-06-14T09:59:09;29.10;81.20
20102;DHT22;10210;52.284;9.892;2023-06-14T10:01:43;29.10;79.80
20102;DHT22;10210;52.284;9.892;2023-06-14T10:04:10;29.10;80.00
20102;DHT22;10210;52.284;9.892;2023-06-14T10:06:43;29.00;80.00
20102;DHT22;10210;52.284;9.892;2023-06-14T10:09:12;29.00;80.10
20102;DHT22;10210;52.284;9.892;2023-06-14T10:11:40;29.00;80.20
20102;DHT22;10210;52.284;9.892;2023-06-14T10:14:10;29.00;80.30
20102;DHT22;10210;52.284;9.892;2023-06-14T10:17:03;29.00;80.90
20102;DHT22;10210;52.284;9.892;2023-06-14T10:19:48;29.00;80.30
20102;DHT22;10210;52.284;9.892;2023-06-14T10:22:23;29.00;79.60
20102;DHT22;10210;52.284;9.892;2023-06-14T10:24:56;28.90;78.90
20102;DHT22;10210;52.284;9.892;2023-06-14T10:27:22;28.80;79.20
20102;DHT22;10210;52.284;9.892;2023-06-14T10:32:27;28.60;79.90
20102;DHT22;10210;52.284;9.892;2023-06-14T10:34:59;28.50;80.20
20102;DHT22;10210;52.284;9.892;2023-06-14T10:37:27;28.50;80.70
20102;DHT22;10210;52.284;9.892;2023-06-14T10:39:53;28.40;80.90
20102;DHT22;10210;52.284;9.892;2023-06-14T10:42:19;28.40;81.40
20102;DHT22;10210;52.284;9.892;2023-06-14T10:44:54;28.50;82.10
20102;DHT22;10210;52.284;9.892;2023-06-14T10:47:33;28.50;82.40
20102;DHT22;10210;52.284;9.892;2023-06-14T10:50:08;28.50;81.20
20102;DHT22;10210;52.284;9.892;2023-06-14T10:52:38;28.50;81.10
20102;DHT22;10210;52.284;9.892;2023-06-14T10:55:08;28.40;80.30
20102;DHT22;10210;52.284;9.892;2023-06-14T10:57:45;28.30;80.30
20102;DHT22;10210;52.284;9.892;2023-06-14T11:00:13;28.20;81.60
20102;DHT22;10210;52.284;9.892;2023-06-14T11:02:52;28.10;81.80
20102;DHT22;10210;52.284;9.892;2023-06-14T11:05:55;28.10;83.10
20102;DHT22;10210;52.284;9.892;2023-06-14T11:09:02;28.10;82.30
20102;DHT22;10210;52.284;9.892;2023-06-14T11:11:51;28.20;82.20
20102;DHT22;10210;52.284;9.892;2023-06-14T11:14:21;28.20;82.50
20102;DHT22;10210;52.284;9.892;2023-06-14T11:16:50;28.20;82.70
20102;DHT22;10210;52.284;9.892;2023-06-14T11:19:16;28.20;82.80
20102;DHT22;10210;52.284;9.892;2023-06-14T11:21:43;28.20;82.70
20102;DHT22;10210;52.284;9.892;2023-06-14T11:24:12;28.20;82.90
20102;DHT22;10210;52.284;9.892;2023-06-14T11:26:39;28.20;82.40
20102;DHT22;10210;52.284;9.892;2023-06-14T11:29:05;28.20;82.20
20102;DHT22;10210;52.284;9.892;2023-06-14T11:31:31;28.20;82.40
20102;DHT22;10210;52.284;9.892;2023-06-14T11:33:59;28.20;82.10
20102;DHT22;10210;52.284;9.892;2023-06-14T11:36:33;28.20;81.90
20102;DHT22;10210;52.284;9.892;2023-06-14T11:39:04;28.20;81.90
20102;DHT22;10210;52.284;9.892;2023-06-14T11:41:43;28.20;82.80
20102;DHT22;10210;52.284;9.892;2023-06-14T11:44:10;28.10;82.90
20102;DHT22;10210;52.284;9.892;2023-06-14T11:46:40;28.20;83.40
20102;DHT22;10210;52.284;9.892;2023-06-14T11:49:07;28.30;83.20
20102;DHT22;10210;52.284;9.892;2023-06-14T11:51:34;28.30;82.40
20102;DHT22;10210;52.284;9.892;2023-06-14T11:54:02;28.30;81.70
20102;DHT22;10210;52.284;9.892;2023-06-14T11:56:32;28.30;81.70
20102;DHT22;10210;52.284;9.892;2023-06-14T11:58:58;28.20;81.80
20102;DHT22;10210;52.284;9.892;2023-06-14T12:01:25;28.20;81.70
20102;DHT22;10210;52.284;9.892;2023-06-14T12:03:54;28.20;82.20
20102;DHT22;10210;52.284;9.892;2023-06-14T12:06:29;28.20;82.80
20102;DHT22;10210;52.284;9.892;2023-06-14T12:08:59;28.20;82.70
20102;DHT22;10210;52.284;9.892;2023-06-14T12:11:31;28.20;82.70
20102;DHT22;10210;52.284;9.892;2023-06-14T12:13:58;28.20;82.30
20102;DHT22;10210;52.284;9.892;2023-06-14T12:16:30;28.30;82.70
20102;DHT22;10210;52.284;9.892;2023-06-14T12:19:08;28.30;82.50
20102;DHT22;10210;52.284;9.892;2023-06-14T12:21:42;28.30;82.60
20102;DHT22;10210;52.284;9.892;2023-06-14T12:24:12;28.30;82.60
20102;DHT22;10210;52.284;9.892;2023-06-14T12:26:39;28.40;83.40
20102;DHT22;10210;52.284;9.892;2023-06-14T12:29:06;28.40;84.20
20102;DHT22;10210;52.284;9.892;2023-06-14T12:31:33;28.50;84.30
20102;DHT22;10210;52.284;9.892;2023-06-14T12:33:59;28.60;83.80
20102;DHT22;10210;52.284;9.892;2023-06-14T12:36:25;28.70;83.50
20102;DHT22;10210;52.284;9.892;2023-06-14T12:38:51;28.70;83.50
20102;DHT22;10210;52.284;9.892;2023-06-14T12:41:21;28.70;83.30
20102;DHT22;10210;52.284;9.892;2023-06-14T12:43:47;28.70;82.90
20102;DHT22;10210;52.284;9.892;2023-06-14T12:46:13;28.60;82.80
20102;DHT22;10210;52.284;9.892;2023-06-14T12:48:39;28.50;82.60
20102;DHT22;10210;52.284;9.892;2023-06-14T12:51:05;28.50;83.40
20102;DHT22;10210;52.284;9.892;2023-06-14T12:53:31;28.40;83.10
20102;DHT22;10210;52.284;9.892;2023-06-14T12:55:56;28.30;83.20
20102;DHT22;10210;52.284;9.892;2023-06-14T12:58:22;28.30;83.60
20102;DHT22;10210;52.284;9.892;2023-06-14T13:00:49;28.20;83.70
20102;DHT22;10210;52.284;9.892;2023-06-14T13:03:15;28.20;84.40
20102;DHT22;10210;52.284;9.892;2023-06-14T13:05:40;28.30;84.50
20102;DHT22;10210;52.284;9.892;2023-06-14T13:08:07;28.30;84.60
20102;DHT22;10210;52.284;9.892;2023-06-14T13:10:34;28.40;84.20
20102;DHT22;10210;52.284;9.892;2023-06-14T13:13:00;28.50;83.80
20102;DHT22;10210;52.284;9.892;2023-06-14T13:15:27;28.60;83.80
20102;DHT22;10210;52.284;9.892;2023-06-14T13:17:52;28.60;83.90
20102;DHT22;10210;52.284;9.892;2023-06-14T13:20:18;28.70;83.90
20102;DHT22;10210;52.284;9.892;2023-06-14T13:22:44;28.70;83.40
20102;DHT22;10210;52.284;9.892;2023-06-14T13:25:09;28.70;83.90
20102;DHT22;10210;52.284;9.892;2023-06-14T13:27:36;28.70;83.70
20102;DHT22;10210;52.284;9.892;2023-06-14T13:30:03;28.80;84.60
20102;DHT22;10210;52.284;9.892;2023-06-14T13:32:30;28.90;84.40
20102;DHT22;10210;52.284;9.892;2023-06-14T13:34:56;28.90;83.80
20102;DHT22;10210;52.284;9.892;2023-06-14T13:37:22;29.10;84.00
20102;DHT22;10210;52.284;9.892;2023-06-14T13:39:48;29.20;83.60
20102;DHT22;10210;52.284;9.892;2023-06-14T13:42:13;29.40;83.70
20102;DHT22;10210;52.284;9.892;2023-06-14T13:44:39;29.40;83.10
20102;DHT22;10210;52.284;9.892;2023-06-14T13:47:05;29.40;82.80
20102;DHT22;10210;52.284;9.892;2023-06-14T13:49:31;29.50;82.20
20102;DHT22;10210;52.284;9.892;2023-06-14T13:51:58;29.30;82.10
20102;DHT22;10210;52.284;9.892;2023-06-14T13:54:24;29.30;82.10
20102;DHT22;10210;52.284;9.892;2023-06-14T13:56:49;29.30;82.30
20102;DHT22;10210;52.284;9.892;2023-06-14T13:59:15;29.10;82.30
20102;DHT22;10210;52.284;9.892;2023-06-14T14:01:42;29.10;81.80
20102;DHT22;10210;52.284;9.892;2023-06-14T14:04:08;29.10;82.00
20102;DHT22;10210;52.284;9.892;2023-06-14T14:06:34;29.10;82.20
20102;DHT22;10210;52.284;9.892;2023-06-14T14:09:00;29.10;82.10
20102;DHT22;10210;52.284;9.892;2023-06-14T14:11:26;29.10;82.30
20102;DHT22;10210;52.284;9.892;2023-06-14T14:13:53;29.20;82.20
20102;DHT22;10210;52.284;9.892;2023-06-14T14:16:20;29.10;81.80
20102;DHT22;10210;52.284;9.892;2023-06-14T14:18:46;29.20;81.60
20102;DHT22;10210;52.284;9.892;2023-06-14T14:21:12;29.30;81.60
20102;DHT22;10210;52.284;9.892;2023-06-14T14:23:37;29.30;82.20
20102;DHT22;10210;52.284;9.892;2023-06-14T14:26:03;29.50;82.10
20102;DHT22;10210;52.284;9.892;2023-06-14T14:28:30;29.50;81.50
20102;DHT22;10210;52.284;9.892;2023-06-14T14:30:57;29.50;81.20
20102;DHT22;10210;52.284;9.892;2023-06-14T14:33:25;29.60;81.40
20102;DHT22;10210;52.284;9.892;2023-06-14T14:35:50;29.70;81.70
20102;DHT22;10210;52.284;9.892;2023-06-14T14:38:16;29.80;82.00
20102;DHT22;10210;52.284;9.892;2023-06-14T14:40:44;29.90;81.80
20102;DHT22;10210;52.284;9.892;2023-06-14T14:43:11;30.00;81.00
20102;DHT22;10210;52.284;9.892;2023-06-14T14:45:37;30.10;81.10
20102;DHT22;10210;52.284;9.892;2023-06-14T14:48:03;30.10;80.40
20102;DHT22;10210;52.284;9.892;2023-06-14T14:50:29;30.20;80.20
20102;DHT22;10210;52.284;9.892;2023-06-14T14:52:55;30.00;79.80
20102;DHT22;10210;52.284;9.892;2023-06-14T14:55:22;29.90;79.20
20102;DHT22;10210;52.284;9.892;2023-06-14T14:57:47;29.80;79.60
20102;DHT22;10210;52.284;9.892;2023-06-14T15:00:13;29.70;79.80
20102;DHT22;10210;52.284;9.892;2023-06-14T15:02:39;29.50;79.50
20102;DHT22;10210;52.284;9.892;2023-06-14T15:05:05;29.40;79.70
20102;DHT22;10210;52.284;9.892;2023-06-14T15:07:31;29.30;79.80
20102;DHT22;10210;52.284;9.892;2023-06-14T15:09:59;29.10;80.20
20102;DHT22;10210;52.284;9.892;2023-06-14T15:12:25;29.00;80.60
20102;DHT22;10210;52.284;9.892;2023-06-14T15:14:51;28.90;81.00
20102;DHT22;10210;52.284;9.892;2023-06-14T15:17:18;28.80;81.30
20102;DHT22;10210;52.284;9.892;2023-06-14T15:19:45;28.70;81.20
20102;DHT22;10210;52.284;9.892;2023-06-14T15:22:11;28.60;81.30
20102;DHT22;10210;52.284;9.892;2023-06-14T15:24:37;28.60;81.70
20102;DHT22;10210;52.284;9.892;2023-06-14T15:27:03;28.60;81.90
20102;DHT22;10210;52.284;9.892;2023-06-14T15:29:29;28.50;82.00
20102;DHT22;10210;52.284;9.892;2023-06-14T15:31:56;28.50;82.10
20102;DHT22;10210;52.284;9.892;2023-06-14T15:34:23;28.50;82.80
20102;DHT22;10210;52.284;9.892;2023-06-14T15:36:49;28.60;82.90
20102;DHT22;10210;52.284;9.892;2023-06-14T15:39:15;28.70;83.70